sensor_id;sensor_type;location;lat;lon;timestamp;pressure;altitude;pressure_sealevel;temperature;humidity
7834;BME280;3962;42.696;23.354;2023-04-05T00:02:16;94684.44;;;1.18;90.05
7834;BME280;3962;42.696;23.354;2023-04-05T00:04:44;94686.34;;;1.03;90.42
7834;BME280;3962;42.696;23.354;2023-04-05T00:07:17;94671.97;;;1.09;91.38
7834;BME280;3962;42.696;23.354;2023-04-05T00:09:47;94677.34;;;0.95;90.04
7834;BME280;3962;42.696;23.354;2023-04-05T00:12:15;94675.47;;;0.97;91.24
7834;BME280;3962;42.696;23.354;2023-04-05T00:14:41;94673.06;;;1.06;90.94
7834;BME280;3962;42.696;23.354;2023-04-05T00:17:08;94675.75;;;1.05;91.26
7834;BME280;3962;42.696;23.354;2023-04-05T00:19:35;94677.66;;;1.03;91.36
7834;BME280;3962;42.696;23.354;2023-04-05T00:22:02;94665.78;;;1.10;91.59
7834;BME280;3962;42.696;23.354;2023-04-05T00:24:29;94672.28;;;1.04;90.96
7834;BME280;3962;42.696;23.354;2023-04-05T00:26:58;94661.94;;;1.03;90.36
7834;BME280;3962;42.696;23.354;2023-04-05T00:29:26;94664.34;;;0.93;91.60
7834;BME280;3962;42.696;23.354;2023-04-05T00:31:54;94670.94;;;0.99;91.67
7834;BME280;3962;42.696;23.354;2023-04-05T00:34:21;94676.19;;;0.99;91.35
7834;BME280;3962;42.696;23.354;2023-04-05T00:36:47;94671.25;;;1.07;91.17
7834;BME280;3962;42.696;23.354;2023-04-05T00:39:14;94678.78;;;1.11;91.37
7834;BME280;3962;42.696;23.354;2023-04-05T00:41:41;94672.09;;;1.07;90.79
7834;BME280;3962;42.696;23.354;2023-04-05T00:44:09;94675.38;;;0.98;91.06
7834;BME280;3962;42.696;23.354;2023-04-05T00:46:38;94677.44;;;1.06;90.02
7834;BME280;3962;42.696;23.354;2023-04-05T00:49:05;94683.50;;;1.19;90.55
7834;BME280;3962;42.696;23.354;2023-04-05T00:51:32;94677.97;;;1.11;89.18
7834;BME280;3962;42.696;23.354;2023-04-05T00:53:59;94677.13;;;1.10;90.53
7834;BME280;3962;42.696;23.354;2023-04-05T00:56:27;94691.38;;;1.06;89.72
7834;BME280;3962;42.696;23.354;2023-04-05T00:58:54;94664.88;;;1.11;90.23
7834;BME280;3962;42.696;23.354;2023-04-05T01:01:22;94689.81;;;1.04;90.87
7834;BME280;3962;42.696;23.354;2023-04-05T01:03:53;94690.75;;;1.03;89.83
7834;BME280;3962;42.696;23.354;2023-04-05T01:06:46;94672.41;;;0.90;91.14
7834;BME280;3962;42.696;23.354;2023-04-05T01:09:26;94686.56;;;1.00;91.09
7834;BME280;3962;42.696;23.354;2023-04-05T01:11:56;94697.84;;;0.88;91.11
7834;BME280;3962;42.696;23.354;2023-04-05T01:14:24;94685.84;;;0.98;90.86
7834;BME280;3962;42.696;23.354;2023-04-05T01:16:51;94687.69;;;1.09;89.95
7834;BME280;3962;42.696;23.354;2023-04-05T01:19:26;94687.59;;;1.10;89.83
7834;BME280;3962;42.696;23.354;2023-04-05T01:28:17;94698.72;;;1.01;90.70
7834;BME280;3962;42.696;23.354;2023-04-05T01:30:49;94676.59;;;0.93;90.73
7834;BME280;3962;42.696;23.354;2023-04-05T01:33:24;94688.44;;;0.86;91.11
7834;BME280;3962;42.696;23.354;2023-04-05T01:35:54;94684.34;;;0.94;91.08
7834;BME280;3962;42.696;23.354;2023-04-05T01:38:24;94695.06;;;0.91;89.49
7834;BME280;3962;42.696;23.354;2023-04-05T01:40:52;94699.03;;;0.97;89.97
7834;BME280;3962;42.696;23.354;2023-04-05T01:43:19;94693.97;;;0.94;90.65
7834;BME280;3962;42.696;23.354;2023-04-05T01:45:48;94702.38;;;0.99;89.50
7834;BME280;3962;42.696;23.354;2023-04-05T01:48:14;94696.00;;;1.03;89.93
7834;BME280;3962;42.696;23.354;2023-04-05T01:50:41;94700.06;;;1.07;88.98
7834;BME280;3962;42.696;23.354;2023-04-05T01:53:08;94686.94;;;1.19;89.34
7834;BME280;3962;42.696;23.354;2023-04-05T01:55:35;94693.88;;;1.08;88.13
7834;BME280;3962;42.696;23.354;2023-04-05T01:58:02;94690.22;;;1.10;88.69
7834;BME280;3962;42.696;23.354;2023-04-05T02:00:29;94685.53;;;1.03;88.11
7834;BME280;3962;42.696;23.354;2023-04-05T02:02:57;94695.78;;;1.06;88.27
7834;BME280;3962;42.696;23.354;2023-04-05T02:05:24;94695.22;;;1.13;89.05
7834;BME280;3962;42.696;23.354;2023-04-05T02:07:51;94696.81;;;1.16;89.19
7834;BME280;3962;42.696;23.354;2023-04-05T02:10:18;94697.66;;;1.16;89.28
7834;BME280;3962;42.696;23.354;2023-04-05T02:12:45;94698.91;;;1.23;89.05
7834;BME280;3962;42.696;23.354;2023-04-05T02:15:12;94695.75;;;1.18;87.93
7834;BME280;3962;42.696;23.354;2023-04-05T02:17:39;94704.25;;;1.22;88.66
7834;BME280;3962;42.696;23.354;2023-04-05T02:20:12;94697.84;;;1.13;88.45
7834;BME280;3962;42.696;23.354;2023-04-05T02:22:40;94703.94;;;1.14;87.49
7834;BME280;3962;42.696;23.354;2023-04-05T02:25:10;94699.97;;;1.21;88.01
7834;BME280;3962;42.696;23.354;2023-04-05T02:27:37;94704.22;;;1.34;88.25
7834;BME280;3962;42.696;23.354;2023-04-05T02:30:05;94696.16;;;1.25;87.55
7834;BME280;3962;42.696;23.354;2023-04-05T02:32:32;94711.25;;;1.21;87.81
7834;BME280;3962;42.696;23.354;2023-04-05T02:34:59;94700.25;;;1.29;87.63
7834;BME280;3962;42.696;23.354;2023-04-05T02:37:27;94706.63;;;1.37;87.30
7834;BME280;3962;42.696;23.354;2023-04-05T02:39:54;94698.28;;;1.32;87.85
7834;BME280;3962;42.696;23.354;2023-04-05T02:42:20;94694.31;;;1.27;86.85
7834;BME280;3962;42.696;23.354;2023-04-05T02:44:47;94705.09;;;1.10;87.67
7834;BME280;3962;42.696;23.354;2023-04-05T02:47:14;94695.16;;;1.02;87.67
7834;BME280;3962;42.696;23.354;2023-04-05T02:49:46;94690.63;;;0.92;88.00
7834;BME280;3962;42.696;23.354;2023-04-05T02:52:13;94678.38;;;1.05;88.12
7834;BME280;3962;42.696;23.354;2023-04-05T02:54:41;94692.75;;;1.12;87.89
7834;BME280;3962;42.696;23.354;2023-04-05T02:57:08;94695.56;;;1.09;88.37
7834;BME280;3962;42.696;23.354;2023-04-05T02:59:36;94687.59;;;1.23;88.71
7834;BME280;3962;42.696;23.354;2023-04-05T03:02:03;94683.38;;;1.20;87.73
7834;BME280;3962;42.696;23.354;2023-04-05T03:04:30;94688.13;;;1.15;87.65
7834;BME280;3962;42.696;23.354;2023-04-05T03:06:59;94689.66;;;1.18;88.47
7834;BME280;3962;42.696;23.354;2023-04-05T03:09:28;94695.75;;;1.18;88.46
7834;BME280;3962;42.696;23.354;2023-04-05T03:11:59;94701.09;;;1.17;87.45
7834;BME280;3962;42.696;23.354;2023-04-05T03:14:28;94691.78;;;1.13;88.72
7834;BME280;3962;42.696;23.354;2023-04-05T03:16:54;94694.41;;;1.25;88.28
7834;BME280;3962;42.696;23.354;2023-04-05T03:19:21;94700.03;;;1.32;88.76
7834;BME280;3962;42.696;23.354;2023-04-05T03:21:48;94698.28;;;1.32;87.67
7834;BME280;3962;42.696;23.354;2023-04-05T03:24:15;94696.16;;;1.37;87.60
7834;BME280;3962;42.696;23.354;2023-04-05T03:26:42;94701.38;;;1.37;87.12
7834;BME280;3962;42.696;23.354;2023-04-05T03:29:10;94692.94;;;1.34;87.50
7834;BME280;3962;42.696;23.354;2023-04-05T03:31:37;94696.78;;;1.41;87.97
7834;BME280;3962;42.696;23.354;2023-04-05T03:34:04;94696.91;;;1.39;88.27
7834;BME280;3962;42.696;23.354;2023-04-05T03:36:31;94699.22;;;1.31;88.01
7834;BME280;3962;42.696;23.354;2023-04-05T03:39:06;94701.81;;;1.44;87.94
7834;BME280;3962;42.696;23.354;2023-04-05T03:41:33;94697.00;;;1.38;87.10
7834;BME280;3962;42.696;23.354;2023-04-05T03:43:59;94696.16;;;1.25;87.92
7834;BME280;3962;42.696;23.354;2023-04-05T03:46:27;94707.38;;;1.52;90.33
7834;BME280;3962;42.696;23.354;2023-04-05T03:48:55;94703.84;;;2.81;93.40
7834;BME280;3962;42.696;23.354;2023-04-05T03:51:22;94713.41;;;3.49;93.55
7834;BME280;3962;42.696;23.354;2023-04-05T03:53:49;94709.34;;;3.56;88.85
7834;BME280;3962;42.696;23.354;2023-04-05T03:56:16;94714.22;;;3.83;91.05
7834;BME280;3962;42.696;23.354;2023-04-05T03:58:43;94714.09;;;3.30;86.71
7834;BME280;3962;42.696;23.354;2023-04-05T04:01:11;94714.69;;;3.22;86.71
7834;BME280;3962;42.696;23.354;2023-04-05T04:03:39;94721.50;;;3.68;85.88
7834;BME280;3962;42.696;23.354;2023-04-05T04:06:06;94720.94;;;3.76;84.46
7834;BME280;3962;42.696;23.354;2023-04-05T04:08:33;94732.81;;;3.03;82.62
7834;BME280;3962;42.696;23.354;2023-04-05T04:11:00;94732.38;;;2.28;83.69
7834;BME280;3962;42.696;23.354;2023-04-05T04:13:27;94723.47;;;1.71;86.35
7834;BME280;3962;42.696;23.354;2023-04-05T04:15:54;94727.09;;;1.45;88.34
7834;BME280;3962;42.696;23.354;2023-04-05T04:18:20;94721.13;;;1.43;88.89
7834;BME280;3962;42.696;23.354;2023-04-05T04:20:49;94724.97;;;1.37;89.63
7834;BME280;3962;42.696;23.354;2023-04-05T04:23:17;94730.88;;;1.16;89.02
7834;BME280;3962;42.696;23.354;2023-04-05T04:25:45;94727.44;;;1.03;89.40
7834;BME280;3962;42.696;23.354;2023-04-05T04:28:12;94730.47;;;1.09;90.92
7834;BME280;3962;42.696;23.354;2023-04-05T04:30:42;94729.28;;;1.13;90.64
7834;BME280;3962;42.696;23.354;2023-04-05T04:33:09;94734.53;;;1.13;90.97
7834;BME280;3962;42.696;23.354;2023-04-05T04:35:36;94733.78;;;1.24;89.80
7834;BME280;3962;42.696;23.354;2023-04-05T04:38:06;94727.41;;;1.28;89.61
7834;BME280;3962;42.696;23.354;2023-04-05T04:40:34;94732.34;;;1.20;90.49
7834;BME280;3962;42.696;23.354;2023-04-05T04:43:03;94731.06;;;1.38;90.96
7834;BME280;3962;42.696;23.354;2023-04-05T04:45:30;94732.41;;;1.56;90.01
7834;BME280;3962;42.696;23.354;2023-04-05T04:47:59;94733.03;;;1.47;90.26
7834;BME280;3962;42.696;23.354;2023-04-05T04:50:29;94737.88;;;1.40;89.66
7834;BME280;3962;42.696;23.354;2023-04-05T04:52:58;94732.66;;;1.28;90.45
7834;BME280;3962;42.696;23.354;2023-04-05T04:55:27;94735.78;;;1.33;90.85
7834;BME280;3962;42.696;23.354;2023-04-05T04:57:55;94732.22;;;1.46;90.81
7834;BME280;3962;42.696;23.354;2023-04-05T05:00:22;94734.00;;;1.46;90.27
7834;BME280;3962;42.696;23.354;2023-04-05T05:02:51;94738.50;;;1.44;90.31
7834;BME280;3962;42.696;23.354;2023-04-05T05:05:19;94747.72;;;1.49;89.64
7834;BME280;3962;42.696;23.354;2023-04-05T05:07:47;94743.03;;;1.42;88.30
7834;BME280;3962;42.696;23.354;2023-04-05T05:10:14;94743.13;;;1.53;89.29
7834;BME280;3962;42.696;23.354;2023-04-05T05:12:43;94735.78;;;1.58;88.48
7834;BME280;3962;42.696;23.354;2023-04-05T05:15:11;94729.81;;;1.43;88.27
7834;BME280;3962;42.696;23.354;2023-04-05T05:17:38;94745.00;;;1.63;89.49
7834;BME280;3962;42.696;23.354;2023-04-05T05:20:06;94750.66;;;1.57;89.09
7834;BME280;3962;42.696;23.354;2023-04-05T05:22:34;94745.50;;;1.56;87.97
7834;BME280;3962;42.696;23.354;2023-04-05T05:25:01;94752.41;;;1.57;88.42
7834;BME280;3962;42.696;23.354;2023-04-05T05:27:28;94746.13;;;1.59;88.69
7834;BME280;3962;42.696;23.354;2023-04-05T05:29:56;94754.13;;;1.58;87.28
7834;BME280;3962;42.696;23.354;2023-04-05T05:32:23;94753.81;;;1.50;87.97
7834;BME280;3962;42.696;23.354;2023-04-05T05:34:50;94754.22;;;1.56;87.94
7834;BME280;3962;42.696;23.354;2023-04-05T05:37:18;94748.22;;;1.67;87.44
7834;BME280;3962;42.696;23.354;2023-04-05T05:39:53;94762.28;;;1.66;87.31
7834;BME280;3962;42.696;23.354;2023-04-05T05:42:20;94750.94;;;1.78;87.44
7834;BME280;3962;42.696;23.354;2023-04-05T05:44:48;94733.63;;;1.75;86.79
7834;BME280;3962;42.696;23.354;2023-04-05T05:47:16;94739.97;;;1.96;86.73
7834;BME280;3962;42.696;23.354;2023-04-05T05:49:43;94746.47;;;2.03;86.06
7834;BME280;3962;42.696;23.354;2023-04-05T05:52:09;94743.31;;;1.98;85.21
7834;BME280;3962;42.696;23.354;2023-04-05T05:54:36;94748.47;;;2.00;85.73
7834;BME280;3962;42.696;23.354;2023-04-05T05:57:03;94748.22;;;1.79;85.37
7834;BME280;3962;42.696;23.354;2023-04-05T05:59:30;94737.59;;;1.81;85.27
7834;BME280;3962;42.696;23.354;2023-04-05T06:01:57;94751.00;;;2.01;84.29
7834;BME280;3962;42.696;23.354;2023-04-05T06:04:25;94743.84;;;2.50;86.03
7834;BME280;3962;42.696;23.354;2023-04-05T06:06:53;94753.38;;;2.28;83.61
7834;BME280;3962;42.696;23.354;2023-04-05T06:09:20;94737.78;;;2.26;83.21
7834;BME280;3962;42.696;23.354;2023-04-05T06:11:50;94738.88;;;2.11;83.10
7834;BME280;3962;42.696;23.354;2023-04-05T06:14:17;94755.72;;;2.20;83.04
7834;BME280;3962;42.696;23.354;2023-04-05T06:16:43;94755.09;;;2.16;82.52
7834;BME280;3962;42.696;23.354;2023-04-05T06:19:10;94764.06;;;2.37;83.09
7834;BME280;3962;42.696;23.354;2023-04-05T06:21:38;94765.78;;;2.26;81.38
7834;BME280;3962;42.696;23.354;2023-04-05T06:24:06;94763.16;;;2.26;81.67
7834;BME280;3962;42.696;23.354;2023-04-05T06:26:32;94762.16;;;2.39;81.49
7834;BME280;3962;42.696;23.354;2023-04-05T06:28:59;94757.81;;;2.51;81.88
7834;BME280;3962;42.696;23.354;2023-04-05T06:31:29;94766.53;;;2.51;81.11
7834;BME280;3962;42.696;23.354;2023-04-05T06:33:56;94768.09;;;2.54;80.43
7834;BME280;3962;42.696;23.354;2023-04-05T06:36:23;94769.16;;;2.51;80.12
7834;BME280;3962;42.696;23.354;2023-04-05T06:38:52;94774.84;;;2.45;80.44
7834;BME280;3962;42.696;23.354;2023-04-05T06:41:19;94770.72;;;2.54;80.05
7834;BME280;3962;42.696;23.354;2023-04-05T06:43:46;94778.75;;;2.40;79.15
7834;BME280;3962;42.696;23.354;2023-04-05T06:46:12;94780.94;;;2.46;80.39
7834;BME280;3962;42.696;23.354;2023-04-05T06:48:39;94783.69;;;2.68;80.10
7834;BME280;3962;42.696;23.354;2023-04-05T06:51:08;94780.03;;;2.58;79.50
7834;BME280;3962;42.696;23.354;2023-04-05T06:53:35;94780.84;;;2.82;80.15
7834;BME280;3962;42.696;23.354;2023-04-05T06:56:03;94783.41;;;2.94;79.54
7834;BME280;3962;42.696;23.354;2023-04-05T06:58:30;94791.72;;;3.12;77.55
7834;BME280;3962;42.696;23.354;2023-04-05T07:00:59;94788.38;;;3.10;76.77
7834;BME280;3962;42.696;23.354;2023-04-05T07:03:25;94789.88;;;2.90;75.93
7834;BME280;3962;42.696;23.354;2023-04-05T07:05:53;94794.88;;;2.93;77.71
7834;BME280;3962;42.696;23.354;2023-04-05T07:08:21;94802.16;;;2.90;77.38
7834;BME280;3962;42.696;23.354;2023-04-05T07:10:50;94805.03;;;2.98;77.21
7834;BME280;3962;42.696;23.354;2023-04-05T07:13:19;94813.63;;;2.65;77.19
7834;BME280;3962;42.696;23.354;2023-04-05T07:15:46;94809.47;;;2.97;78.07
7834;BME280;3962;42.696;23.354;2023-04-05T07:18:13;94798.44;;;2.81;76.89
7834;BME280;3962;42.696;23.354;2023-04-05T07:20:41;94814.97;;;2.71;76.77
7834;BME280;3962;42.696;23.354;2023-04-05T07:23:08;94818.84;;;2.78;77.28
7834;BME280;3962;42.696;23.354;2023-04-05T07:25:34;94827.63;;;3.00;77.22
7834;BME280;3962;42.696;23.354;2023-04-05T07:28:01;94822.53;;;3.10;75.89
7834;BME280;3962;42.696;23.354;2023-04-05T07:30:30;94821.31;;;3.03;76.62
7834;BME280;3962;42.696;23.354;2023-04-05T07:32:57;94821.31;;;3.03;76.97
7834;BME280;3962;42.696;23.354;2023-04-05T07:35:24;94822.81;;;2.94;77.39
7834;BME280;3962;42.696;23.354;2023-04-05T07:37:52;94830.06;;;2.80;76.98
7834;BME280;3962;42.696;23.354;2023-04-05T07:40:19;94832.28;;;2.97;77.02
7834;BME280;3962;42.696;23.354;2023-04-05T07:42:45;94839.69;;;2.92;76.52
7834;BME280;3962;42.696;23.354;2023-04-05T07:45:12;94836.66;;;2.85;77.59
7834;BME280;3962;42.696;23.354;2023-04-05T07:47:40;94842.03;;;2.84;78.05
7834;BME280;3962;42.696;23.354;2023-04-05T07:50:08;94838.56;;;2.83;77.78
7834;BME280;3962;42.696;23.354;2023-04-05T07:52:36;94847.22;;;2.96;77.49
7834;BME280;3962;42.696;23.354;2023-04-05T07:55:03;94843.06;;;3.05;76.48
7834;BME280;3962;42.696;23.354;2023-04-05T07:57:31;94842.00;;;3.07;76.34
7834;BME280;3962;42.696;23.354;2023-04-05T07:59:58;94849.78;;;3.09;76.34
7834;BME280;3962;42.696;23.354;2023-04-05T08:02:25;94844.81;;;2.93;76.29
7834;BME280;3962;42.696;23.354;2023-04-05T08:04:53;94857.47;;;2.88;76.35
7834;BME280;3962;42.696;23.354;2023-04-05T08:07:22;94854.84;;;2.88;76.09
7834;BME280;3962;42.696;23.354;2023-04-05T08:09:48;94847.88;;;2.64;76.81
7834;BME280;3962;42.696;23.354;2023-04-05T08:12:15;94852.94;;;2.54;76.28
7834;BME280;3962;42.696;23.354;2023-04-05T08:14:42;94850.41;;;2.65;77.00
7834;BME280;3962;42.696;23.354;2023-04-05T08:17:09;94860.78;;;2.67;76.41
7834;BME280;3962;42.696;23.354;2023-04-05T08:19:35;94856.56;;;2.77;75.84
7834;BME280;3962;42.696;23.354;2023-04-05T08:22:04;94873.59;;;2.95;75.57
7834;BME280;3962;42.696;23.354;2023-04-05T08:24:30;94873.94;;;2.90;75.34
7834;BME280;3962;42.696;23.354;2023-04-05T08:26:57;94872.69;;;3.07;75.98
7834;BME280;3962;42.696;23.354;2023-04-05T08:29:24;94874.38;;;2.61;76.01
7834;BME280;3962;42.696;23.354;2023-04-05T08:31:51;94874.03;;;2.65;76.84
7834;BME280;3962;42.696;23.354;2023-04-05T08:34:18;94873.75;;;2.57;76.14
7834;BME280;3962;42.696;23.354;2023-04-05T08:36:45;94865.13;;;2.68;76.33
7834;BME280;3962;42.696;23.354;2023-04-05T08:39:13;94872.69;;;2.83;76.44
7834;BME280;3962;42.696;23.354;2023-04-05T08:41:45;94876.91;;;2.86;76.72
7834;BME280;3962;42.696;23.354;2023-04-05T08:44:20;94890.09;;;2.73;76.57
7834;BME280;3962;42.696;23.354;2023-04-05T08:46:49;94867.97;;;2.88;77.26
7834;BME280;3962;42.696;23.354;2023-04-05T08:49:16;94878.97;;;2.93;77.42
7834;BME280;3962;42.696;23.354;2023-04-05T08:51:43;94887.25;;;3.00;76.83
7834;BME280;3962;42.696;23.354;2023-04-05T08:54:10;94874.44;;;2.95;77.19
7834;BME280;3962;42.696;23.354;2023-04-05T08:56:39;94883.06;;;2.97;77.45
7834;BME280;3962;42.696;23.354;2023-04-05T08:59:09;94889.97;;;2.98;77.55
7834;BME280;3962;42.696;23.354;2023-04-05T09:01:38;94891.31;;;3.04;77.85
7834;BME280;3962;42.696;23.354;2023-04-05T09:04:11;94896.78;;;2.77;79.01
7834;BME280;3962;42.696;23.354;2023-04-05T09:06:39;94897.88;;;2.62;79.32
7834;BME280;3962;42.696;23.354;2023-04-05T09:09:07;94919.34;;;2.56;79.95
7834;BME280;3962;42.696;23.354;2023-04-05T09:11:34;94904.84;;;2.87;79.11
7834;BME280;3962;42.696;23.354;2023-04-05T09:14:03;94901.59;;;3.07;78.11
7834;BME280;3962;42.696;23.354;2023-04-05T09:16:31;94902.03;;;3.24;77.43
7834;BME280;3962;42.696;23.354;2023-04-05T09:18:59;94908.56;;;3.42;76.44
7834;BME280;3962;42.696;23.354;2023-04-05T09:21:26;94902.22;;;3.68;75.78
7834;BME280;3962;42.696;23.354;2023-04-05T09:23:53;94903.81;;;3.47;76.15
7834;BME280;3962;42.696;23.354;2023-04-05T09:26:22;94907.84;;;3.40;76.74
7834;BME280;3962;42.696;23.354;2023-04-05T09:28:49;94905.66;;;3.34;75.41
7834;BME280;3962;42.696;23.354;2023-04-05T09:31:31;94914.50;;;3.33;76.70
7834;BME280;3962;42.696;23.354;2023-04-05T09:33:59;94895.91;;;3.47;75.38
7834;BME280;3962;42.696;23.354;2023-04-05T09:36:26;94906.44;;;3.81;74.45
7834;BME280;3962;42.696;23.354;2023-04-05T09:39:03;94899.28;;;4.05;73.48
7834;BME280;3962;42.696;23.354;2023-04-05T09:41:31;94893.09;;;4.28;72.25
7834;BME280;3962;42.696;23.354;2023-04-05T09:43:58;94899.03;;;3.97;71.44
7834;BME280;3962;42.696;23.354;2023-04-05T09:46:31;94901.78;;;3.85;72.16
7834;BME280;3962;42.696;23.354;2023-04-05T09:48:58;94887.66;;;3.86;73.30
7834;BME280;3962;42.696;23.354;2023-04-05T09:51:31;94890.78;;;3.91;72.50
7834;BME280;3962;42.696;23.354;2023-04-05T09:54:00;94886.25;;;4.26;72.07
7834;BME280;3962;42.696;23.354;2023-04-05T09:56:28;94890.44;;;4.72;71.03
7834;BME280;3962;42.696;23.354;2023-04-05T09:58:59;94885.41;;;4.47;71.17
7834;BME280;3962;42.696;23.354;2023-04-05T10:01:27;94887.41;;;4.88;70.74
7834;BME280;3962;42.696;23.354;2023-04-05T10:03:57;94892.94;;;4.63;68.99
7834;BME280;3962;42.696;23.354;2023-04-05T10:06:34;94897.00;;;6.24;69.45
7834;BME280;3962;42.696;23.354;2023-04-05T10:09:01;94899.00;;;6.11;67.58
7834;BME280;3962;42.696;23.354;2023-04-05T10:11:30;94886.06;;;5.36;64.61
7834;BME280;3962;42.696;23.354;2023-04-05T10:13:59;94893.25;;;4.91;64.75
7834;BME280;3962;42.696;23.354;2023-04-05T10:16:29;94903.00;;;4.69;66.15
7834;BME280;3962;42.696;23.354;2023-04-05T10:18:59;94895.94;;;4.69;65.39
7834;BME280;3962;42.696;23.354;2023-04-05T10:21:29;94910.50;;;5.38;64.55
7834;BME280;3962;42.696;23.354;2023-04-05T10:24:06;94906.50;;;5.75;64.74
7834;BME280;3962;42.696;23.354;2023-04-05T10:26:39;94910.84;;;6.17;64.35
7834;BME280;3962;42.696;23.354;2023-04-05T10:29:12;94901.81;;;5.78;64.21
7834;BME280;3962;42.696;23.354;2023-04-05T10:31:49;94891.13;;;5.59;63.55
7834;BME280;3962;42.696;23.354;2023-04-05T10:34:29;94894.72;;;4.62;66.16
7834;BME280;3962;42.696;23.354;2023-04-05T10:36:59;94901.44;;;4.88;65.49
7834;BME280;3962;42.696;23.354;2023-04-05T10:39:28;94890.78;;;5.21;65.44
7834;BME280;3962;42.696;23.354;2023-04-05T10:41:59;94901.53;;;4.87;65.41
7834;BME280;3962;42.696;23.354;2023-04-05T10:44:29;94872.06;;;4.93;64.22
7834;BME280;3962;42.696;23.354;2023-04-05T10:46:57;94902.47;;;4.97;65.44
7834;BME280;3962;42.696;23.354;2023-04-05T10:49:31;94884.56;;;4.69;65.68
7834;BME280;3962;42.696;23.354;2023-04-05T10:51:59;94892.84;;;4.42;66.05
7834;BME280;3962;42.696;23.354;2023-04-05T10:54:28;94897.28;;;4.31;65.96
7834;BME280;3962;42.696;23.354;2023-04-05T10:56:58;94892.84;;;4.42;67.20
7834;BME280;3962;42.696;23.354;2023-04-05T10:59:27;94901.69;;;4.63;66.36
7834;BME280;3962;42.696;23.354;2023-04-05T11:01:54;94900.38;;;4.58;65.76
7834;BME280;3962;42.696;23.354;2023-04-05T11:04:22;94908.66;;;4.42;66.38
7834;BME280;3962;42.696;23.354;2023-04-05T11:07:09;94919.44;;;4.50;66.75
7834;BME280;3962;42.696;23.354;2023-04-05T11:09:37;94919.91;;;4.66;66.38
7834;BME280;3962;42.696;23.354;2023-04-05T11:12:04;94915.00;;;4.40;65.13
7834;BME280;3962;42.696;23.354;2023-04-05T11:14:34;94912.97;;;4.65;65.68
7834;BME280;3962;42.696;23.354;2023-04-05T11:17:02;94916.06;;;5.55;63.89
7834;BME280;3962;42.696;23.354;2023-04-05T11:19:48;94922.47;;;5.73;61.64
7834;BME280;3962;42.696;23.354;2023-04-05T11:22:26;94910.69;;;5.57;62.44
7834;BME280;3962;42.696;23.354;2023-04-05T11:24:54;94912.69;;;5.96;62.68
7834;BME280;3962;42.696;23.354;2023-04-05T11:27:26;94916.69;;;6.41;59.75
7834;BME280;3962;42.696;23.354;2023-04-05T11:29:54;94895.94;;;6.36;59.96
7834;BME280;3962;42.696;23.354;2023-04-05T11:32:21;94904.09;;;6.03;60.71
7834;BME280;3962;42.696;23.354;2023-04-05T11:34:59;94912.75;;;6.35;61.41
7834;BME280;3962;42.696;23.354;2023-04-05T11:37:54;94905.22;;;7.00;58.59
7834;BME280;3962;42.696;23.354;2023-04-05T11:40:24;94913.13;;;6.51;58.70
7834;BME280;3962;42.696;23.354;2023-04-05T11:42:58;94905.47;;;6.88;57.69
7834;BME280;3962;42.696;23.354;2023-04-05T11:45:25;94892.84;;;5.70;59.45
7834;BME280;3962;42.696;23.354;2023-04-05T11:47:52;94904.84;;;5.74;60.93
7834;BME280;3962;42.696;23.354;2023-04-05T11:50:19;94909.25;;;5.73;61.10
7834;BME280;3962;42.696;23.354;2023-04-05T11:53:07;94894.44;;;5.41;61.61
7834;BME280;3962;42.696;23.354;2023-04-05T11:55:35;94907.78;;;5.28;63.37
7834;BME280;3962;42.696;23.354;2023-04-05T11:58:02;94910.34;;;5.19;60.52
7834;BME280;3962;42.696;23.354;2023-04-05T12:00:29;94902.88;;;4.81;62.86
7834;BME280;3962;42.696;23.354;2023-04-05T12:02:56;94825.69;;;4.26;65.17
7834;BME280;3962;42.696;23.354;2023-04-05T12:05:23;94900.16;;;5.14;64.60
7834;BME280;3962;42.696;23.354;2023-04-05T12:07:53;94905.28;;;5.27;64.26
7834;BME280;3962;42.696;23.354;2023-04-05T12:10:22;94894.44;;;4.87;63.92
7834;BME280;3962;42.696;23.354;2023-04-05T12:12:49;94909.66;;;4.95;65.55
7834;BME280;3962;42.696;23.354;2023-04-05T12:15:20;94902.09;;;5.12;64.78
7834;BME280;3962;42.696;23.354;2023-04-05T12:17:49;94919.09;;;5.51;65.72
7834;BME280;3962;42.696;23.354;2023-04-05T12:20:18;94914.22;;;5.67;65.49
7834;BME280;3962;42.696;23.354;2023-04-05T12:22:47;94914.22;;;6.19;64.67
7834;BME280;3962;42.696;23.354;2023-04-05T12:25:15;94908.75;;;6.61;62.55
7834;BME280;3962;42.696;23.354;2023-04-05T12:27:47;94903.38;;;6.22;61.15
7834;BME280;3962;42.696;23.354;2023-04-05T12:30:17;94906.16;;;6.00;61.60
7834;BME280;3962;42.696;23.354;2023-04-05T12:32:45;94912.28;;;6.00;63.54
7834;BME280;3962;42.696;23.354;2023-04-05T12:35:15;94905.53;;;5.24;65.86
7834;BME280;3962;42.696;23.354;2023-04-05T12:37:42;94909.03;;;5.02;65.13
7834;BME280;3962;42.696;23.354;2023-04-05T12:40:10;94908.22;;;5.44;66.38
7834;BME280;3962;42.696;23.354;2023-04-05T12:42:38;94913.97;;;5.70;64.89
7834;BME280;3962;42.696;23.354;2023-04-05T12:45:09;94908.56;;;5.82;65.46
7834;BME280;3962;42.696;23.354;2023-04-05T12:47:47;94916.22;;;5.85;64.03
7834;BME280;3962;42.696;23.354;2023-04-05T12:50:15;94917.41;;;6.02;62.75
7834;BME280;3962;42.696;23.354;2023-04-05T12:52:53;94918.19;;;5.41;64.27
7834;BME280;3962;42.696;23.354;2023-04-05T12:55:21;94912.59;;;5.23;65.86
7834;BME280;3962;42.696;23.354;2023-04-05T12:57:49;94906.13;;;5.16;65.15
7834;BME280;3962;42.696;23.354;2023-04-05T13:00:19;94913.22;;;5.16;65.42
7834;BME280;3962;42.696;23.354;2023-04-05T13:02:50;94904.69;;;4.70;66.30
7834;BME280;3962;42.696;23.354;2023-04-05T13:05:19;94908.97;;;4.60;65.23
7834;BME280;3962;42.696;23.354;2023-04-05T13:07:46;94905.06;;;4.65;66.21
7834;BME280;3962;42.696;23.354;2023-04-05T13:10:14;94908.72;;;4.96;65.04
7834;BME280;3962;42.696;23.354;2023-04-05T13:12:41;94910.97;;;5.43;63.08
7834;BME280;3962;42.696;23.354;2023-04-05T13:15:09;94919.25;;;4.96;64.32
7834;BME280;3962;42.696;23.354;2023-04-05T13:17:43;94914.91;;;5.06;63.28
7834;BME280;3962;42.696;23.354;2023-04-05T13:20:14;94915.47;;;4.78;64.63
7834;BME280;3962;42.696;23.354;2023-04-05T13:22:41;94907.53;;;4.67;64.97
7834;BME280;3962;42.696;23.354;2023-04-05T13:25:10;94923.13;;;5.66;64.69
7834;BME280;3962;42.696;23.354;2023-04-05T13:27:39;94915.00;;;6.70;60.98
7834;BME280;3962;42.696;23.354;2023-04-05T13:30:07;94912.19;;;6.62;58.79
7834;BME280;3962;42.696;23.354;2023-04-05T13:32:34;94911.88;;;6.25;60.04
7834;BME280;3962;42.696;23.354;2023-04-05T13:35:02;94913.13;;;6.81;59.46
7834;BME280;3962;42.696;23.354;2023-04-05T13:37:30;94905.94;;;6.63;58.88